EWG9504 LROP-LBWN
Flight info
| Callsign | EWG9504 |
|---|---|
| Flight time | 0h 30m |
| Altitude | 27000 |
| Route | POLUN1M/26R POLUN DCT RASUB DCT BULEN DCT EXIGA |
| Aircraft | A320/M-SDE3FGHIRWY/LB1 |
Departure
| Time | 2026-05-08 17:51 |
|---|---|
| Airport | Bucharest Henri Coandă International Airport (LROP) |
Arrival
| Time | 2026-05-08 18:21 |
|---|---|
| Airport | Varna Airport (LBWN) |
| Time | Latitude | Longitude | Altitude | Speed | Heading |
|---|---|---|---|---|---|
| 2026-05-08 17:05 | 44.56936 | 26.09459 | 310 ft | 0 kts | 174° |
| 2026-05-08 17:46 | 44.56923 | 26.09461 | 310 ft | 4 kts | 174° |
| 2026-05-08 17:46 | 44.56895 | 26.09421 | 309 ft | 9 kts | 262° |
| 2026-05-08 17:46 | 44.56882 | 26.09286 | 307 ft | 17 kts | 264° |
| 2026-05-08 17:46 | 44.56867 | 26.09099 | 306 ft | 19 kts | 263° |
| 2026-05-08 17:47 | 44.56853 | 26.08909 | 305 ft | 20 kts | 263° |
| 2026-05-08 17:47 | 44.56840 | 26.08718 | 306 ft | 18 kts | 259° |
| 2026-05-08 17:47 | 44.56836 | 26.08574 | 306 ft | 14 kts | 308° |
| 2026-05-08 17:47 | 44.56898 | 26.08551 | 308 ft | 13 kts | 353° |
| 2026-05-08 17:48 | 44.57024 | 26.08535 | 309 ft | 14 kts | 354° |
| 2026-05-08 17:48 | 44.57126 | 26.08521 | 312 ft | 15 kts | 354° |
| 2026-05-08 17:48 | 44.57238 | 26.08504 | 313 ft | 17 kts | 352° |
| 2026-05-08 17:48 | 44.57366 | 26.08485 | 313 ft | 19 kts | 358° |
| 2026-05-08 17:49 | 44.57499 | 26.08463 | 313 ft | 13 kts | 354° |
| 2026-05-08 17:49 | 44.57529 | 26.08460 | 313 ft | 0 kts | 356° |
| 2026-05-08 17:49 | 44.57534 | 26.08459 | 313 ft | 2 kts | 356° |
| 2026-05-08 17:49 | 44.57571 | 26.08455 | 313 ft | 8 kts | 356° |
| 2026-05-08 17:50 | 44.57646 | 26.08453 | 313 ft | 12 kts | 21° |
| 2026-05-08 17:50 | 44.57674 | 26.08569 | 313 ft | 13 kts | 83° |
| 2026-05-08 17:50 | 44.57694 | 26.08823 | 313 ft | 58 kts | 84° |
| 2026-05-08 17:50 | 44.57764 | 26.09745 | 316 ft | 129 kts | 83° |
| 2026-05-08 17:51 | 44.57887 | 26.11235 | 489 ft | 169 kts | 85° |
| 2026-05-08 17:51 | 44.58015 | 26.12833 | 1232 ft | 168 kts | 87° |
| 2026-05-08 17:51 | 44.58133 | 26.14418 | 2037 ft | 168 kts | 85° |
| 2026-05-08 17:51 | 44.58305 | 26.16054 | 2749 ft | 174 kts | 81° |
| 2026-05-08 17:52 | 44.58527 | 26.17779 | 3315 ft | 191 kts | 81° |
| 2026-05-08 17:52 | 44.58755 | 26.19650 | 3968 ft | 203 kts | 81° |
| 2026-05-08 17:52 | 44.59112 | 26.23867 | 5291 ft | 235 kts | 86° |
| 2026-05-08 17:53 | 44.59039 | 26.26244 | 5916 ft | 254 kts | 105° |
| 2026-05-08 17:53 | 44.58078 | 26.28348 | 6564 ft | 273 kts | 140° |
| 2026-05-08 17:53 | 44.56386 | 26.29558 | 7427 ft | 281 kts | 160° |
| 2026-05-08 17:53 | 44.54494 | 26.30382 | 8336 ft | 288 kts | 163° |
| 2026-05-08 17:54 | 44.52594 | 26.31201 | 9234 ft | 293 kts | 161° |
| 2026-05-08 17:54 | 44.50662 | 26.32106 | 10138 ft | 297 kts | 159° |
| 2026-05-08 17:54 | 44.48703 | 26.33091 | 10870 ft | 307 kts | 158° |
| 2026-05-08 17:54 | 44.46645 | 26.34180 | 11361 ft | 325 kts | 158° |
| 2026-05-08 17:55 | 44.44474 | 26.35359 | 11803 ft | 344 kts | 158° |
| 2026-05-08 17:55 | 44.42224 | 26.36594 | 12273 ft | 359 kts | 157° |
| 2026-05-08 17:55 | 44.39863 | 26.37900 | 13046 ft | 365 kts | 157° |
| 2026-05-08 17:55 | 44.37541 | 26.39189 | 13901 ft | 366 kts | 157° |
| 2026-05-08 17:56 | 44.35151 | 26.40520 | 14783 ft | 369 kts | 157° |
| 2026-05-08 17:56 | 44.32775 | 26.41844 | 15599 ft | 373 kts | 158° |
| 2026-05-08 17:56 | 44.30379 | 26.43178 | 16325 ft | 377 kts | 158° |
| 2026-05-08 17:56 | 44.27931 | 26.44540 | 17048 ft | 380 kts | 158° |
| 2026-05-08 17:57 | 44.25481 | 26.45902 | 17770 ft | 384 kts | 158° |
| 2026-05-08 17:57 | 44.23001 | 26.47279 | 18466 ft | 387 kts | 158° |
| 2026-05-08 17:57 | 44.20503 | 26.48663 | 19113 ft | 391 kts | 158° |
| 2026-05-08 17:57 | 44.17974 | 26.50064 | 19754 ft | 394 kts | 158° |
| 2026-05-08 17:58 | 44.15402 | 26.51487 | 20381 ft | 398 kts | 158° |
| 2026-05-08 17:58 | 44.12814 | 26.52918 | 21023 ft | 401 kts | 158° |
| 2026-05-08 17:58 | 44.10273 | 26.54324 | 22029 ft | 393 kts | 158° |
| 2026-05-08 17:58 | 44.07775 | 26.55704 | 23053 ft | 384 kts | 159° |
| 2026-05-08 17:59 | 44.05352 | 26.57042 | 24077 ft | 375 kts | 159° |
| 2026-05-08 17:59 | 44.02953 | 26.58367 | 25132 ft | 365 kts | 159° |
| 2026-05-08 17:59 | 44.00638 | 26.59644 | 26023 ft | 359 kts | 159° |
| 2026-05-08 17:59 | 43.98329 | 26.60916 | 26376 ft | 358 kts | 159° |
| 2026-05-08 18:00 | 43.96016 | 26.62189 | 26024 ft | 365 kts | 159° |
| 2026-05-08 18:00 | 43.91192 | 26.64835 | 24311 ft | 383 kts | 159° |
| 2026-05-08 18:00 | 43.88715 | 26.66198 | 23339 ft | 392 kts | 159° |
| 2026-05-08 18:01 | 43.86160 | 26.67605 | 22688 ft | 394 kts | 159° |
| 2026-05-08 18:01 | 43.83625 | 26.68999 | 22151 ft | 393 kts | 159° |
| 2026-05-08 18:01 | 43.81105 | 26.70381 | 21637 ft | 391 kts | 159° |
| 2026-05-08 18:01 | 43.78605 | 26.71749 | 21141 ft | 389 kts | 159° |
| 2026-05-08 18:02 | 43.76091 | 26.73123 | 20638 ft | 386 kts | 159° |
| 2026-05-08 18:02 | 43.74429 | 26.74031 | 20306 ft | 385 kts | 159° |
| 2026-05-08 18:02 | 43.71138 | 26.75827 | 19629 ft | 381 kts | 159° |
| 2026-05-08 18:02 | 43.68679 | 26.77169 | 19130 ft | 379 kts | 159° |
| 2026-05-08 18:03 | 43.66256 | 26.78490 | 18639 ft | 376 kts | 159° |
| 2026-05-08 18:03 | 43.63855 | 26.79797 | 18143 ft | 373 kts | 159° |
| 2026-05-08 18:03 | 43.61456 | 26.81101 | 17649 ft | 370 kts | 159° |
| 2026-05-08 18:03 | 43.59054 | 26.82407 | 17157 ft | 368 kts | 159° |
| 2026-05-08 18:04 | 43.56710 | 26.83678 | 16669 ft | 365 kts | 159° |
| 2026-05-08 18:04 | 43.54341 | 26.84962 | 16171 ft | 363 kts | 159° |
| 2026-05-08 18:04 | 43.51998 | 26.86233 | 15682 ft | 360 kts | 158° |
| 2026-05-08 18:04 | 43.49856 | 26.87918 | 15168 ft | 359 kts | 140° |
| 2026-05-08 18:05 | 43.48273 | 26.90505 | 14672 ft | 359 kts | 121° |
| 2026-05-08 18:05 | 43.47396 | 26.93743 | 14163 ft | 360 kts | 102° |
| 2026-05-08 18:05 | 43.47199 | 26.97142 | 13679 ft | 359 kts | 94° |
| 2026-05-08 18:05 | 43.47098 | 27.00557 | 13184 ft | 357 kts | 94° |
| 2026-05-08 18:06 | 43.46999 | 27.03939 | 12694 ft | 354 kts | 94° |
| 2026-05-08 18:06 | 43.46892 | 27.07293 | 12239 ft | 351 kts | 94° |
| 2026-05-08 18:06 | 43.46778 | 27.10645 | 11782 ft | 348 kts | 94° |
| 2026-05-08 18:06 | 43.46661 | 27.13923 | 11301 ft | 345 kts | 94° |
| 2026-05-08 18:07 | 43.46545 | 27.17222 | 10831 ft | 342 kts | 94° |
| 2026-05-08 18:07 | 43.46428 | 27.20440 | 10470 ft | 335 kts | 94° |
| 2026-05-08 18:07 | 43.46312 | 27.23567 | 10340 ft | 320 kts | 93° |
| 2026-05-08 18:07 | 43.46201 | 27.26548 | 10217 ft | 306 kts | 94° |
| 2026-05-08 18:08 | 43.46096 | 27.29412 | 10110 ft | 292 kts | 94° |
| 2026-05-08 18:08 | 43.45991 | 27.32102 | 10024 ft | 278 kts | 95° |
| 2026-05-08 18:08 | 43.45794 | 27.34729 | 9761 ft | 273 kts | 97° |
| 2026-05-08 18:08 | 43.45575 | 27.37317 | 9408 ft | 272 kts | 97° |
| 2026-05-08 18:09 | 43.45356 | 27.39893 | 9066 ft | 271 kts | 97° |
| 2026-05-08 18:09 | 43.45139 | 27.42438 | 8735 ft | 270 kts | 97° |
| 2026-05-08 18:09 | 43.44921 | 27.44993 | 8410 ft | 268 kts | 98° |
| 2026-05-08 18:09 | 43.44542 | 27.47463 | 8061 ft | 265 kts | 117° |
| 2026-05-08 18:10 | 43.43361 | 27.49323 | 7908 ft | 252 kts | 148° |
| 2026-05-08 18:10 | 43.41723 | 27.50137 | 7932 ft | 258 kts | 174° |
| 2026-05-08 18:10 | 43.39908 | 27.49966 | 7968 ft | 262 kts | 187° |
| 2026-05-08 18:10 | 43.38113 | 27.49614 | 8024 ft | 260 kts | 191° |
| 2026-05-08 18:11 | 43.36541 | 27.48572 | 7974 ft | 249 kts | 225° |
| 2026-05-08 18:11 | 43.35760 | 27.46522 | 7970 ft | 246 kts | 258° |
| 2026-05-08 18:11 | 43.35579 | 27.44185 | 7984 ft | 251 kts | 263° |
| 2026-05-08 18:11 | 43.35415 | 27.41779 | 7984 ft | 251 kts | 263° |
| 2026-05-08 18:12 | 43.35359 | 27.39389 | 7973 ft | 252 kts | 270° |
| 2026-05-08 18:12 | 43.35515 | 27.36981 | 7819 ft | 255 kts | 275° |
| 2026-05-08 18:12 | 43.35719 | 27.34594 | 7534 ft | 254 kts | 271° |
| 2026-05-08 18:12 | 43.35435 | 27.32269 | 7218 ft | 247 kts | 238° |
| 2026-05-08 18:13 | 43.34237 | 27.30683 | 6941 ft | 239 kts | 203° |
| 2026-05-08 18:13 | 43.32644 | 27.30186 | 6683 ft | 233 kts | 184° |
| 2026-05-08 18:13 | 43.31045 | 27.30005 | 6432 ft | 231 kts | 184° |
| 2026-05-08 18:13 | 43.29446 | 27.30036 | 6140 ft | 229 kts | 163° |
| 2026-05-08 18:14 | 43.28124 | 27.31152 | 5883 ft | 228 kts | 131° |
| 2026-05-08 18:14 | 43.27414 | 27.33072 | 5614 ft | 230 kts | 102° |
| 2026-05-08 18:14 | 43.27228 | 27.35263 | 5346 ft | 231 kts | 98° |
| 2026-05-08 18:14 | 43.27073 | 27.37438 | 5084 ft | 230 kts | 98° |
| 2026-05-08 18:15 | 43.26907 | 27.39604 | 4831 ft | 230 kts | 99° |
| 2026-05-08 18:15 | 43.26727 | 27.41768 | 4580 ft | 230 kts | 99° |
| 2026-05-08 18:15 | 43.26539 | 27.43969 | 4318 ft | 230 kts | 99° |
| 2026-05-08 18:15 | 43.26352 | 27.46138 | 4076 ft | 230 kts | 99° |
| 2026-05-08 18:16 | 43.26166 | 27.48298 | 3930 ft | 229 kts | 99° |
| 2026-05-08 18:16 | 43.25979 | 27.50482 | 3597 ft | 232 kts | 99° |
| 2026-05-08 18:16 | 43.25793 | 27.52669 | 3289 ft | 232 kts | 99° |
| 2026-05-08 18:16 | 43.25607 | 27.54843 | 3052 ft | 229 kts | 99° |
| 2026-05-08 18:17 | 43.25426 | 27.56980 | 2901 ft | 221 kts | 99° |
| 2026-05-08 18:17 | 43.25283 | 27.59019 | 2883 ft | 208 kts | 98° |
| 2026-05-08 18:17 | 43.25142 | 27.60973 | 2885 ft | 207 kts | 99° |
| 2026-05-08 18:17 | 43.24975 | 27.62958 | 2765 ft | 208 kts | 99° |
| 2026-05-08 18:18 | 43.24797 | 27.64901 | 2507 ft | 208 kts | 100° |
| 2026-05-08 18:18 | 43.24612 | 27.66884 | 2249 ft | 207 kts | 101° |
| 2026-05-08 18:18 | 43.24445 | 27.68739 | 2033 ft | 192 kts | 101° |
| 2026-05-08 18:18 | 43.24286 | 27.70494 | 1775 ft | 179 kts | 102° |
| 2026-05-08 18:19 | 43.24138 | 27.72130 | 1517 ft | 166 kts | 102° |
| 2026-05-08 18:19 | 43.24002 | 27.73625 | 1286 ft | 152 kts | 101° |
| 2026-05-08 18:19 | 43.23872 | 27.75030 | 1083 ft | 146 kts | 102° |
| 2026-05-08 18:19 | 43.23748 | 27.76414 | 929 ft | 145 kts | 99° |
| 2026-05-08 18:20 | 43.23622 | 27.77766 | 770 ft | 143 kts | 100° |
| 2026-05-08 18:20 | 43.23513 | 27.79101 | 560 ft | 140 kts | 100° |
| 2026-05-08 18:20 | 43.23385 | 27.80409 | 379 ft | 138 kts | 99° |
| 2026-05-08 18:20 | 43.23270 | 27.81689 | 243 ft | 130 kts | 99° |
| 2026-05-08 18:21 | 43.23175 | 27.82720 | 237 ft | 82 kts | 94° |
| 2026-05-08 18:21 | 43.23129 | 27.83283 | 237 ft | 35 kts | 98° |
| 2026-05-08 18:21 | 43.23101 | 27.83573 | 237 ft | 26 kts | 97° |
| 2026-05-08 18:21 | 43.23079 | 27.83752 | 237 ft | 16 kts | 92° |
| 2026-05-08 18:22 | 43.23075 | 27.83904 | 237 ft | 16 kts | 94° |
| 2026-05-08 18:22 | 43.23101 | 27.84045 | 237 ft | 15 kts | 48° |
| 2026-05-08 18:22 | 43.23173 | 27.84101 | 237 ft | 10 kts | 8° |
| 2026-05-08 18:22 | 43.23243 | 27.84036 | 237 ft | 17 kts | 295° |
| 2026-05-08 18:23 | 43.23297 | 27.83859 | 237 ft | 20 kts | 294° |
| 2026-05-08 18:23 | 43.23356 | 27.83681 | 237 ft | 20 kts | 294° |
| 2026-05-08 18:23 | 43.23410 | 27.83520 | 237 ft | 11 kts | 294° |
| 2026-05-08 18:23 | 43.23442 | 27.83412 | 237 ft | 12 kts | 292° |
| 2026-05-08 18:24 | 43.23494 | 27.83336 | 237 ft | 11 kts | 356° |
| 2026-05-08 18:24 | 43.23546 | 27.83255 | 237 ft | 12 kts | 274° |
| 2026-05-08 18:24 | 43.23540 | 27.83132 | 237 ft | 13 kts | 269° |
| 2026-05-08 18:24 | 43.23554 | 27.83002 | 237 ft | 14 kts | 279° |
| 2026-05-08 18:25 | 43.23560 | 27.82865 | 237 ft | 14 kts | 258° |
| 2026-05-08 18:25 | 43.23555 | 27.82732 | 237 ft | 11 kts | 279° |
| 2026-05-08 18:25 | 43.23588 | 27.82667 | 237 ft | 7 kts | 314° |
| 2026-05-08 18:25 | 43.23602 | 27.82649 | 237 ft | 0 kts | 319° |